Jamesville, New York
Current Conditions -  °F | °C
As of 11:54 AM on Wednesday 22 Oct 2014 (Local Time) from KSYR Reporting Station
Broken Clouds Broken Clouds  
Wind Chill: 53°   Ceiling: 3100
Heat Index: 53°   Visibility: 10mi
Dew Point: 46°   Wind: 8mph
Humidity: 77%   Direction: 360°N
Pressure: 30.14"   Gusts: NA
Location:  42.99°N, 76.07°W
Report Text: KSYR 221554Z 36007KT 10SM SCT017 BKN031 12/08 A3014 RMK AO2 SLP203 BKN V OVCOVC V BKN T01170078
Loading
Personal Weather Stations






























Interactive Weather Map New forecast layout! Learn more

10-Day Weather Forecast

Advertisements
Track Severe Weather on mobile